createdAt,value
2019-05-22T00:01:10.790Z,26.20
2019-05-22T00:03:45.113Z,23.17
2019-05-22T00:06:15.248Z,22.17
2019-05-22T00:08:45.340Z,22.90
2019-05-22T00:11:16.504Z,22.93
2019-05-22T00:13:48.013Z,22.53
2019-05-22T00:16:24.079Z,21.63
2019-05-22T00:18:55.002Z,23.23
2019-05-22T00:21:25.960Z,22.13
2019-05-22T00:23:55.791Z,21.10
2019-05-22T00:26:25.440Z,22.37
2019-05-22T00:28:56.418Z,20.87
2019-05-22T00:31:27.001Z,20.60
2019-05-22T00:33:57.407Z,23.17
2019-05-22T00:36:27.700Z,20.07
2019-05-22T00:38:57.908Z,21.13
2019-05-22T00:41:28.916Z,22.27
2019-05-22T00:43:59.567Z,24.67
2019-05-22T00:46:29.924Z,21.73
2019-05-22T00:48:59.801Z,22.57
2019-05-22T00:51:36.585Z,21.80
2019-05-22T00:54:27.138Z,20.60
2019-05-22T00:56:58.301Z,19.53
2019-05-22T00:59:36.116Z,21.13
2019-05-22T01:02:10.001Z,22.37
2019-05-22T01:04:41.187Z,21.33
2019-05-22T01:07:18.672Z,19.80
2019-05-22T01:09:51.565Z,19.73
2019-05-22T01:12:28.587Z,21.17
2019-05-22T01:15:01.064Z,19.37
2019-05-22T01:17:33.613Z,21.57
2019-05-22T01:20:03.151Z,21.03
2019-05-22T01:22:34.036Z,20.20
2019-05-22T01:25:05.428Z,19.27
2019-05-22T01:27:36.559Z,20.27
2019-05-22T01:30:08.620Z,21.77
2019-05-22T01:32:51.061Z,21.50
2019-05-22T01:35:22.599Z,22.07
2019-05-22T01:37:52.753Z,22.20
2019-05-22T01:40:41.495Z,21.13
2019-05-22T01:43:12.802Z,22.37
2019-05-22T01:45:43.810Z,21.73
2019-05-22T01:48:17.281Z,22.50
2019-05-22T01:50:52.255Z,21.20
2019-05-22T01:53:23.792Z,22.50
2019-05-22T01:56:06.236Z,21.93
2019-05-22T01:58:37.415Z,20.97
2019-05-22T02:01:10.930Z,21.17
2019-05-22T02:03:40.741Z,21.97
2019-05-22T02:06:10.121Z,21.90
2019-05-22T02:08:43.955Z,21.50
2019-05-22T02:11:16.267Z,21.70
2019-05-22T02:13:51.902Z,21.63
2019-05-22T02:16:21.372Z,22.93
2019-05-22T02:18:52.462Z,23.60
2019-05-22T02:21:23.790Z,22.17
2019-05-22T02:23:53.260Z,22.80
2019-05-22T02:26:23.086Z,23.87
2019-05-22T02:28:54.296Z,24.07
2019-05-22T02:31:25.707Z,23.90
2019-05-22T02:34:02.663Z,22.87
2019-05-22T02:36:32.857Z,22.70
2019-05-22T02:39:03.960Z,22.73
2019-05-22T02:41:40.616Z,22.57
2019-05-22T02:44:10.664Z,24.33
2019-05-22T02:46:42.137Z,24.00
2019-05-22T02:49:14.178Z,24.53
2019-05-22T02:51:44.430Z,24.23
2019-05-22T02:54:13.895Z,26.27
2019-05-22T02:56:43.505Z,24.97
2019-05-22T02:59:13.659Z,23.80
2019-05-22T03:01:43.774Z,26.97
2019-05-22T03:04:14.213Z,26.20
2019-05-22T03:06:43.626Z,25.13
2019-05-22T03:09:17.164Z,25.43
2019-05-22T03:11:59.274Z,25.77
2019-05-22T03:14:31.192Z,25.47
2019-05-22T03:17:04.599Z,24.97
2019-05-22T03:19:45.517Z,25.47
2019-05-22T03:22:21.352Z,24.73
2019-05-22T03:24:52.249Z,23.80
2019-05-22T03:27:24.723Z,23.70
2019-05-22T03:29:55.208Z,26.43
2019-05-22T03:32:25.315Z,25.37
2019-05-22T03:34:54.830Z,25.87
2019-05-22T03:37:27.177Z,25.17
2019-05-22T03:39:57.369Z,27.03
2019-05-22T03:42:27.444Z,27.43
2019-05-22T03:44:56.995Z,28.60
2019-05-22T03:47:27.331Z,29.87
2019-05-22T03:49:57.907Z,28.97
2019-05-22T03:52:27.299Z,31.07
2019-05-22T03:54:56.874Z,28.43
2019-05-22T03:57:26.247Z,29.80
2019-05-22T03:59:55.722Z,32.40
2019-05-22T04:02:26.028Z,30.60
2019-05-22T04:04:57.127Z,29.20
2019-05-22T04:07:26.498Z,32.00
2019-05-22T04:09:57.436Z,31.37
2019-05-22T04:12:27.658Z,30.70
2019-05-22T04:14:58.066Z,32.83
2019-05-22T04:17:27.861Z,31.17
2019-05-22T04:19:58.010Z,33.40
2019-05-22T04:22:27.465Z,33.87
2019-05-22T04:24:57.145Z,33.83
2019-05-22T04:27:26.618Z,31.00
2019-05-22T04:29:56.284Z,27.70
2019-05-22T04:32:30.865Z,30.87
2019-05-22T04:35:01.271Z,31.30
2019-05-22T04:37:31.998Z,32.93
2019-05-22T04:40:24.262Z,32.87
2019-05-22T04:42:54.546Z,30.37
2019-05-22T04:45:25.426Z,29.50
2019-05-22T04:47:58.327Z,29.70
2019-05-22T04:50:29.814Z,30.67
2019-05-22T04:53:00.549Z,32.77
2019-05-22T04:55:31.125Z,33.00
2019-05-22T04:58:06.614Z,28.17
2019-05-22T05:00:36.804Z,30.17
2019-05-22T05:03:06.665Z,30.37
2019-05-22T05:05:44.024Z,27.47
2019-05-22T05:08:15.088Z,27.00
2019-05-22T05:10:48.073Z,32.10
2019-05-22T05:13:18.189Z,28.60
2019-05-22T05:15:47.567Z,23.87
2019-05-22T05:18:17.209Z,24.43
2019-05-22T05:20:46.689Z,23.77
2019-05-22T05:23:16.773Z,25.40
2019-05-22T05:25:47.956Z,23.30
2019-05-22T05:28:20.343Z,25.77
2019-05-22T05:30:50.506Z,28.43
2019-05-22T05:33:20.049Z,22.13
2019-05-22T05:35:50.874Z,26.63
2019-05-22T05:38:23.966Z,25.73
2019-05-22T05:40:53.614Z,27.17
2019-05-22T05:43:24.620Z,27.50
2019-05-22T05:45:54.198Z,28.13
2019-05-22T05:48:24.125Z,24.77
2019-05-22T05:51:08.467Z,27.83
2019-05-22T05:54:07.228Z,28.67
2019-05-22T05:56:39.216Z,28.93
2019-05-22T05:59:09.811Z,31.17
2019-05-22T06:01:40.978Z,27.60
2019-05-22T06:04:12.155Z,27.93
2019-05-22T06:06:45.356Z,28.80
2019-05-22T06:09:19.988Z,27.07
2019-05-22T06:11:53.870Z,26.43
2019-05-22T06:14:29.576Z,23.90
2019-05-22T06:17:09.451Z,24.93
2019-05-22T06:19:41.905Z,22.33
2019-05-22T06:22:11.595Z,20.97
2019-05-22T06:24:59.678Z,21.20
2019-05-22T06:27:31.571Z,22.20
2019-05-22T06:30:11.226Z,19.77
2019-05-22T06:33:07.802Z,22.17
2019-05-22T06:35:43.206Z,23.50
2019-05-22T06:38:18.490Z,24.73
2019-05-22T06:40:48.117Z,23.17
2019-05-22T06:43:25.016Z,24.87
2019-05-22T06:45:55.124Z,24.17
2019-05-22T06:48:24.719Z,25.70
2019-05-22T06:50:54.157Z,27.17
2019-05-22T06:53:24.078Z,26.67
2019-05-22T06:55:53.534Z,24.97
2019-05-22T06:58:23.155Z,28.27
2019-05-22T07:00:52.768Z,26.30
2019-05-22T07:03:24.243Z,26.40
2019-05-22T07:05:54.626Z,26.27
2019-05-22T07:08:24.022Z,25.77
2019-05-22T07:10:54.446Z,24.33
2019-05-22T07:13:26.042Z,24.33
2019-05-22T07:15:55.648Z,26.67
2019-05-22T07:18:26.929Z,24.63
2019-05-22T07:20:56.683Z,26.17
2019-05-22T07:23:27.556Z,23.80
2019-05-22T07:25:58.495Z,32.40
2019-05-22T07:28:28.999Z,27.10
2019-05-22T07:30:58.895Z,31.13
2019-05-22T07:33:28.460Z,33.87
2019-05-22T07:36:09.396Z,27.10
2019-05-22T07:38:29.459Z,27.63
2019-05-22T07:40:59.480Z,26.43
2019-05-22T07:43:29.002Z,27.53
2019-05-22T07:45:58.858Z,26.60
2019-05-22T07:48:30.057Z,25.27
2019-05-22T07:51:00.770Z,23.70
2019-05-22T07:53:30.460Z,23.87
2019-05-22T07:56:04.123Z,21.33
2019-05-22T07:58:34.517Z,21.63
2019-05-22T08:01:04.834Z,26.50
2019-05-22T08:03:38.579Z,24.43
2019-05-22T08:06:08.305Z,27.70
2019-05-22T08:08:39.674Z,22.00
2019-05-22T08:11:09.466Z,22.80
2019-05-22T08:13:39.718Z,29.90
2019-05-22T08:16:10.550Z,23.87
2019-05-22T08:18:40.266Z,22.53
2019-05-22T08:21:10.133Z,20.80
2019-05-22T08:23:39.882Z,19.73
2019-05-22T08:26:11.450Z,17.37
2019-05-22T08:28:41.332Z,17.13
2019-05-22T08:31:12.679Z,17.17
2019-05-22T08:33:42.504Z,16.37
2019-05-22T08:36:12.320Z,19.93
2019-05-22T08:38:44.468Z,17.60
2019-05-22T08:41:15.954Z,18.03
2019-05-22T08:44:14.560Z,19.77
2019-05-22T08:46:17.904Z,20.47
2019-05-22T08:48:49.843Z,22.13
2019-05-22T08:51:19.342Z,28.73
2019-05-22T08:53:49.098Z,26.07
2019-05-22T08:56:19.491Z,25.03
2019-05-22T08:58:49.110Z,27.37
2019-05-22T09:01:18.637Z,32.33
2019-05-22T09:03:48.390Z,26.13
2019-05-22T09:06:18.053Z,25.03
2019-05-22T09:08:47.470Z,25.90
2019-05-22T09:11:16.871Z,26.27
2019-05-22T09:13:48.155Z,28.20
2019-05-22T09:16:19.451Z,30.10
2019-05-22T09:18:48.964Z,28.97
2019-05-22T09:21:18.578Z,28.17
2019-05-22T09:23:47.975Z,28.30
2019-05-22T09:26:18.353Z,27.60
2019-05-22T09:28:47.818Z,30.23
2019-05-22T09:31:18.292Z,28.77
2019-05-22T09:33:47.998Z,27.00
2019-05-22T09:36:17.637Z,27.93
2019-05-22T09:38:47.262Z,28.07
2019-05-22T09:41:16.998Z,28.20
2019-05-22T09:43:48.190Z,26.23
2019-05-22T09:46:17.833Z,28.30
2019-05-22T09:48:50.029Z,26.10
2019-05-22T09:51:19.624Z,28.37
2019-05-22T09:53:51.272Z,24.97
2019-05-22T09:56:21.531Z,26.60
2019-05-22T09:58:53.558Z,27.17
2019-05-22T10:01:22.357Z,26.70
2019-05-22T10:03:51.800Z,28.30
2019-05-22T10:06:21.845Z,27.50
2019-05-22T10:08:51.479Z,28.27
2019-05-22T10:11:21.344Z,27.43
2019-05-22T10:13:50.859Z,25.73
2019-05-22T10:16:23.346Z,25.87
2019-05-22T10:18:53.587Z,26.20
2019-05-22T10:21:23.327Z,26.03
2019-05-22T10:23:52.999Z,23.97
2019-05-22T10:26:22.411Z,23.97
2019-05-22T10:28:53.932Z,25.63
2019-05-22T10:31:24.497Z,25.13
2019-05-22T10:33:53.895Z,25.50
2019-05-22T10:36:23.829Z,26.13
2019-05-22T10:38:54.740Z,25.90
2019-05-22T10:41:24.189Z,25.40
2019-05-22T10:43:54.502Z,26.67
2019-05-22T10:46:24.282Z,26.63
2019-05-22T10:48:54.055Z,24.67
2019-05-22T10:51:23.689Z,24.07
2019-05-22T10:53:53.093Z,26.27
2019-05-22T10:56:24.411Z,27.87
2019-05-22T10:58:53.882Z,25.67
2019-05-22T11:01:23.314Z,24.53
2019-05-22T11:03:53.541Z,32.30
2019-05-22T11:06:22.993Z,24.77
2019-05-22T11:08:52.377Z,25.53
2019-05-22T11:11:21.820Z,25.50
2019-05-22T11:14:00.872Z,24.07
2019-05-22T11:16:22.932Z,24.17
2019-05-22T11:18:52.515Z,22.40
2019-05-22T11:21:21.976Z,22.23
2019-05-22T11:23:53.219Z,22.30
2019-05-22T11:26:22.750Z,22.93
2019-05-22T11:28:52.541Z,22.67
2019-05-22T11:31:23.053Z,21.83
2019-05-22T11:33:52.786Z,22.23
2019-05-22T11:36:22.946Z,22.57
2019-05-22T11:38:52.418Z,22.93
2019-05-22T11:41:21.805Z,21.30
2019-05-22T11:43:51.673Z,21.67
2019-05-22T11:46:21.376Z,20.87
2019-05-22T11:48:51.185Z,20.17
2019-05-22T11:51:22.807Z,20.40
2019-05-22T11:54:07.884Z,18.87
2019-05-22T11:56:23.427Z,19.00
2019-05-22T11:58:53.063Z,20.12
2019-05-22T12:01:24.008Z,21.30
2019-05-22T12:03:54.137Z,19.27
2019-05-22T12:06:25.130Z,20.77
2019-05-22T12:08:54.960Z,19.98
2019-05-22T12:11:25.712Z,20.57
2019-05-22T12:13:55.376Z,20.85
2019-05-22T12:16:26.408Z,19.48
2019-05-22T12:18:58.931Z,18.52
2019-05-22T12:21:28.858Z,20.65
2019-05-22T12:23:58.329Z,18.82
2019-05-22T12:26:30.075Z,19.12
2019-05-22T12:29:00.167Z,19.65
2019-05-22T12:31:31.004Z,18.45
2019-05-22T12:34:01.223Z,17.50
2019-05-22T12:36:31.352Z,18.92
2019-05-22T12:39:02.166Z,17.48
2019-05-22T12:41:32.420Z,15.78
2019-05-22T12:44:03.497Z,15.45
2019-05-22T12:46:33.927Z,17.17
2019-05-22T12:49:08.386Z,15.85
2019-05-22T12:51:36.200Z,15.20
2019-05-22T12:54:08.341Z,16.40
2019-05-22T12:56:40.749Z,16.37
2019-05-22T12:59:13.194Z,17.05
2019-05-22T13:01:43.923Z,15.95
2019-05-22T13:04:15.399Z,16.75
2019-05-22T13:06:45.440Z,17.17
2019-05-22T13:09:15.659Z,17.05
2019-05-22T13:11:46.005Z,16.85
2019-05-22T13:14:16.211Z,17.90
2019-05-22T13:16:49.099Z,18.05
2019-05-22T13:19:19.569Z,16.75
2019-05-22T13:21:52.299Z,16.85
2019-05-22T13:24:23.022Z,16.25
2019-05-22T13:26:54.348Z,15.95
2019-05-22T13:29:28.267Z,17.05
2019-05-22T13:31:58.473Z,16.25
2019-05-22T13:34:32.251Z,15.58
2019-05-22T13:37:02.559Z,16.07
2019-05-22T13:39:32.701Z,15.68
2019-05-22T13:42:02.758Z,15.45
2019-05-22T13:44:32.808Z,15.63
2019-05-22T13:47:04.142Z,15.80
2019-05-22T13:49:35.343Z,14.35
2019-05-22T13:52:05.869Z,13.80
2019-05-22T13:54:36.133Z,14.10
2019-05-22T13:57:07.178Z,13.38
2019-05-22T13:59:38.095Z,13.28
2019-05-22T14:02:08.508Z,11.83
2019-05-22T14:04:38.913Z,13.18
2019-05-22T14:07:11.021Z,13.18
2019-05-22T14:09:42.062Z,12.75
2019-05-22T14:12:12.797Z,12.05
2019-05-22T14:14:44.393Z,11.70
2019-05-22T14:17:14.468Z,11.75
2019-05-22T14:19:44.560Z,10.48
2019-05-22T14:22:14.680Z,11.05
2019-05-22T14:24:44.897Z,9.60
2019-05-22T14:27:14.914Z,11.95
2019-05-22T14:29:45.421Z,9.60
2019-05-22T14:32:15.602Z,9.50
2019-05-22T14:34:45.722Z,8.83
2019-05-22T14:37:15.963Z,9.15
2019-05-22T14:39:45.920Z,8.00
2019-05-22T14:42:16.963Z,8.43
2019-05-22T14:44:50.809Z,8.20
2019-05-22T14:47:24.543Z,7.85
2019-05-22T14:49:54.807Z,8.98
2019-05-22T14:52:25.046Z,7.75
2019-05-22T14:54:55.375Z,8.05
2019-05-22T14:57:26.350Z,7.12
2019-05-22T14:59:56.932Z,7.62
2019-05-22T15:02:27.017Z,7.80
2019-05-22T15:04:58.229Z,8.50
2019-05-22T15:07:28.214Z,8.60
2019-05-22T15:09:58.457Z,8.10
2019-05-22T15:12:28.907Z,8.50
2019-05-22T15:14:58.873Z,9.05
2019-05-22T15:17:32.849Z,8.63
2019-05-22T15:20:01.185Z,7.83
2019-05-22T15:22:32.186Z,8.08
2019-05-22T15:25:02.660Z,8.03
2019-05-22T15:27:32.689Z,7.80
2019-05-22T15:30:03.026Z,8.10
2019-05-22T15:32:33.040Z,7.85
2019-05-22T15:35:03.557Z,8.85
2019-05-22T15:37:34.244Z,8.03
2019-05-22T15:40:05.798Z,8.38
2019-05-22T15:42:41.156Z,8.10
2019-05-22T15:45:18.369Z,7.97
2019-05-22T15:47:55.365Z,7.60
2019-05-22T15:50:28.920Z,8.35
2019-05-22T15:53:06.169Z,7.78
2019-05-22T15:55:39.064Z,7.17
2019-05-22T15:58:11.926Z,7.90
2019-05-22T16:00:44.541Z,7.15
2019-05-22T16:03:17.669Z,8.40
2019-05-22T16:05:48.198Z,7.03
2019-05-22T16:08:19.205Z,8.90
2019-05-22T16:10:52.273Z,7.65
2019-05-22T16:13:22.839Z,9.00
2019-05-22T16:15:55.633Z,8.78
2019-05-22T16:18:31.453Z,7.70
2019-05-22T16:21:03.738Z,12.33
2019-05-22T16:23:37.391Z,8.10
2019-05-22T16:26:11.660Z,7.17
2019-05-22T16:28:44.945Z,8.05
2019-05-22T16:31:16.423Z,10.05
2019-05-22T16:33:47.304Z,7.65
2019-05-22T16:36:18.671Z,8.15
2019-05-22T16:38:49.736Z,11.18
2019-05-22T16:41:20.632Z,8.45
2019-05-22T16:43:51.678Z,8.10
2019-05-22T16:46:23.290Z,7.67
2019-05-22T16:48:53.549Z,7.72
2019-05-22T16:51:24.903Z,8.00
2019-05-22T16:53:57.249Z,7.20
2019-05-22T16:56:27.765Z,6.92
2019-05-22T16:58:58.849Z,7.75
2019-05-22T17:01:29.622Z,7.90
2019-05-22T17:04:03.940Z,7.97
2019-05-22T17:06:35.690Z,7.30
2019-05-22T17:09:09.422Z,7.58
2019-05-22T17:11:40.404Z,8.20
2019-05-22T17:14:12.551Z,8.10
2019-05-22T17:16:45.807Z,7.92
2019-05-22T17:19:26.433Z,8.58
2019-05-22T17:21:48.686Z,9.35
2019-05-22T17:24:20.190Z,8.80
2019-05-22T17:26:49.831Z,9.60
2019-05-22T17:29:19.368Z,8.80
2019-05-22T17:31:48.952Z,8.77
2019-05-22T17:34:34.971Z,9.27
2019-05-22T17:37:08.330Z,7.90
2019-05-22T17:39:40.948Z,8.90
2019-05-22T17:42:14.286Z,9.33
2019-05-22T17:44:46.064Z,9.37
2019-05-22T17:47:16.411Z,8.97
2019-05-22T17:49:46.036Z,10.57
2019-05-22T17:52:18.893Z,8.67
2019-05-22T17:54:51.059Z,10.20
2019-05-22T17:57:22.125Z,8.87
2019-05-22T17:59:52.468Z,8.80
2019-05-22T18:02:23.665Z,8.43
2019-05-22T18:04:53.628Z,9.20
2019-05-22T18:07:23.392Z,7.87
2019-05-22T18:09:53.107Z,8.20
2019-05-22T18:12:22.516Z,9.10
2019-05-22T18:14:53.944Z,7.83
2019-05-22T18:17:24.021Z,8.63
2019-05-22T18:19:55.163Z,8.73
2019-05-22T18:22:24.624Z,10.87
2019-05-22T18:24:54.157Z,8.50
2019-05-22T18:27:25.510Z,8.90
2019-05-22T18:29:57.599Z,10.00
2019-05-22T18:32:27.213Z,8.70
2019-05-22T18:34:56.724Z,8.60
2019-05-22T18:37:26.306Z,9.20
2019-05-22T18:39:55.837Z,9.40
2019-05-22T18:42:25.381Z,8.90
2019-05-22T18:44:54.997Z,9.10
2019-05-22T18:47:24.656Z,8.37
2019-05-22T18:49:54.179Z,9.20
2019-05-22T18:52:39.821Z,9.20
2019-05-22T18:54:55.594Z,9.07
2019-05-22T18:57:24.975Z,9.87
2019-05-22T19:00:00.569Z,9.03
2019-05-22T19:02:25.703Z,10.33
2019-05-22T19:04:56.780Z,10.20
2019-05-22T19:07:26.240Z,11.27
2019-05-22T19:09:55.921Z,11.70
2019-05-22T19:12:25.816Z,11.90
2019-05-22T19:14:55.203Z,12.03
2019-05-22T19:17:25.136Z,13.40
2019-05-22T19:19:55.045Z,12.20
2019-05-22T19:22:24.563Z,11.33
2019-05-22T19:24:54.124Z,13.30
2019-05-22T19:27:23.566Z,12.13
2019-05-22T19:29:53.028Z,11.77
2019-05-22T19:32:22.483Z,12.17
2019-05-22T19:34:51.791Z,12.13
2019-05-22T19:37:21.163Z,11.20
2019-05-22T19:39:51.080Z,12.17
2019-05-22T19:42:20.456Z,10.77
2019-05-22T19:44:49.891Z,10.93
2019-05-22T19:47:21.707Z,10.70
2019-05-22T19:49:51.197Z,11.33
2019-05-22T19:52:22.493Z,10.83
2019-05-22T19:54:51.831Z,10.37
2019-05-22T19:57:21.397Z,11.33
2019-05-22T19:59:51.016Z,10.30
2019-05-22T20:02:20.644Z,10.90
2019-05-22T20:04:51.292Z,10.97
2019-05-22T20:07:21.085Z,10.50
2019-05-22T20:09:50.786Z,11.80
2019-05-22T20:12:24.759Z,11.63
2019-05-22T20:14:52.185Z,10.93
2019-05-22T20:17:22.211Z,10.83
2019-05-22T20:19:52.232Z,11.17
2019-05-22T20:22:21.795Z,10.23
2019-05-22T20:24:51.467Z,11.43
2019-05-22T20:27:21.009Z,10.37
2019-05-22T20:29:50.896Z,12.37
2019-05-22T20:32:20.570Z,11.03
2019-05-22T20:34:50.209Z,11.43
2019-05-22T20:37:20.244Z,12.67
2019-05-22T20:39:49.790Z,12.37
2019-05-22T20:42:19.638Z,11.73
2019-05-22T20:44:49.100Z,10.97
2019-05-22T20:47:20.400Z,11.47
2019-05-22T20:49:51.587Z,12.90
2019-05-22T20:52:21.778Z,11.90
2019-05-22T20:54:51.889Z,10.53
2019-05-22T20:57:21.345Z,11.83
2019-05-22T20:59:56.016Z,11.53
2019-05-22T21:02:27.037Z,11.47
2019-05-22T21:04:58.034Z,12.07
2019-05-22T21:07:36.933Z,11.10
2019-05-22T21:10:08.022Z,11.27
2019-05-22T21:12:37.609Z,10.67
2019-05-22T21:15:08.322Z,11.90
2019-05-22T21:17:39.432Z,11.47
2019-05-22T21:20:12.765Z,10.50
2019-05-22T21:22:42.503Z,11.53
2019-05-22T21:25:13.480Z,10.70
2019-05-22T21:27:43.065Z,11.50
2019-05-22T21:30:14.016Z,11.00
2019-05-22T21:32:45.260Z,10.90
2019-05-22T21:35:17.015Z,10.90
2019-05-22T21:37:47.149Z,11.10
2019-05-22T21:40:19.549Z,11.77
2019-05-22T21:42:51.199Z,11.87
2019-05-22T21:45:21.467Z,11.70
2019-05-22T21:47:51.284Z,11.00
2019-05-22T21:50:20.941Z,11.43
2019-05-22T21:52:50.468Z,12.30
2019-05-22T21:55:20.851Z,10.57
2019-05-22T21:57:50.760Z,11.40
2019-05-22T22:00:42.518Z,11.77
2019-05-22T22:03:14.316Z,11.47
2019-05-22T22:05:44.641Z,13.00
2019-05-22T22:08:14.469Z,11.20
2019-05-22T22:10:44.010Z,11.60
2019-05-22T22:13:13.666Z,11.87
2019-05-22T22:15:46.310Z,12.33
2019-05-22T22:18:15.901Z,11.43
2019-05-22T22:20:45.570Z,12.10
2019-05-22T22:23:16.982Z,12.13
2019-05-22T22:25:46.735Z,12.13
2019-05-22T22:28:18.285Z,11.23
2019-05-22T22:30:53.748Z,13.30
2019-05-22T22:33:27.846Z,12.97
2019-05-22T22:35:57.964Z,11.93
2019-05-22T22:38:28.735Z,12.13
2019-05-22T22:40:59.823Z,12.13
2019-05-22T22:43:35.417Z,11.43
2019-05-22T22:46:19.613Z,13.03
2019-05-22T22:48:51.722Z,11.83
2019-05-22T22:51:21.635Z,12.20
2019-05-22T22:53:51.733Z,14.07
2019-05-22T22:56:22.068Z,13.97
2019-05-22T22:58:52.210Z,13.03
2019-05-22T23:01:30.979Z,12.27
2019-05-22T23:04:03.505Z,12.20
2019-05-22T23:06:36.064Z,11.07
2019-05-22T23:09:07.147Z,11.17
2019-05-22T23:11:38.594Z,11.80
2019-05-22T23:14:10.087Z,12.17
2019-05-22T23:16:40.691Z,11.23
2019-05-22T23:19:14.456Z,12.73
2019-05-22T23:21:44.441Z,11.83
2019-05-22T23:24:14.383Z,11.50
2019-05-22T23:26:44.665Z,11.50
2019-05-22T23:29:14.230Z,11.80
2019-05-22T23:31:44.116Z,11.20
2019-05-22T23:34:13.837Z,11.50
2019-05-22T23:36:45.229Z,12.83
2019-05-22T23:39:17.235Z,11.77
2019-05-22T23:41:47.157Z,11.80
2019-05-22T23:44:19.499Z,11.67
2019-05-22T23:46:49.754Z,11.87
2019-05-22T23:49:19.437Z,12.20
2019-05-22T23:51:48.802Z,11.73
2019-05-22T23:54:18.443Z,12.30
2019-05-22T23:56:51.098Z,11.83
2019-05-22T23:59:20.823Z,12.67
